Sharurah, Saudi Arabia
Current Conditions -  °F | °C
As of 5:00 PM on Monday 24 Nov 2014 (Local Time) from OESH Reporting Station
Clear Clear  
Wind Chill: 91°   Ceiling: Unl
Heat Index: 91°   Visibility: 6mi
Dew Point: 46°   Wind: 9mph
Humidity: 21%   Direction: 180°S
Pressure: 29.83"   Gusts: NA
Location:  17.49°N, 47.08°E
Report Text: OESH 241400Z 18008KT CAVOK 33/08 Q1010 NOSIG
Loading
Personal Weather Stations






























Interactive Weather Map New forecast layout! Learn more

10-Day Weather Forecast

Advertisements
Track Severe Weather on mobile